Time;durP1;ratioP1;P1;durP2;ratioP2;P2;SDS_P1;SDS_P2;PMS_P1;PMS_P2;Temp;Humidity;BMP_temperature;BMP_pressure;BME280_temperature;BME280_humidity;BME280_pressure;Samples;Min_cycle;Max_cycle;Signal;HPM_P1;HPM_P2
2022/10/18 00:02:05;;;;;;;75.10;41.17;;;15.90;99.90;;;;;;5061915;28;20266;-76
2022/10/18 00:04:33;;;;;;;60.13;36.70;;;15.90;99.90;;;;;;5057622;28;20452;-76
2022/10/18 00:07:00;;;;;;;48.40;34.40;;;15.80;99.90;;;;;;5054437;28;20935;-76
2022/10/18 00:09:27;;;;;;;52.63;33.30;;;15.80;99.90;;;;;;5057760;28;20461;-77
2022/10/18 00:11:54;;;;;;;49.63;34.53;;;15.80;99.90;;;;;;5053619;28;20456;-76
2022/10/18 00:14:23;;;;;;;55.60;38.07;;;15.90;99.90;;;;;;5052329;28;20230;-76
2022/10/18 00:16:50;;;;;;;57.67;36.83;;;15.90;99.90;;;;;;5052191;28;20778;-75
2022/10/18 00:19:17;;;;;;;50.27;34.30;;;15.80;99.90;;;;;;5052177;28;20247;-76
2022/10/18 00:21:44;;;;;;;64.17;40.03;;;15.80;99.90;;;;;;5051557;28;20890;-76
2022/10/18 00:24:11;;;;;;;68.75;40.80;;;15.90;99.90;;;;;;5051199;28;20453;-76
2022/10/18 00:26:38;;;;;;;56.73;34.63;;;15.90;99.90;;;;;;5051474;28;20209;-76
2022/10/18 00:29:05;;;;;;;60.63;38.30;;;15.80;99.90;;;;;;5059086;28;20535;-76
2022/10/18 00:31:37;;;;;;;89.57;47.55;;;15.90;99.90;;;;;;5051972;28;20855;-76
2022/10/18 00:34:09;;;;;;;72.13;41.13;;;15.90;99.90;;;;;;5052840;28;20267;-76
2022/10/18 00:36:36;;;;;;;56.85;36.75;;;15.80;99.90;;;;;;5057585;28;20215;-75
2022/10/18 00:39:05;;;;;;;80.63;41.70;;;15.90;99.90;;;;;;5064223;28;20308;-76
2022/10/18 00:41:33;;;;;;;65.23;38.47;;;15.80;99.90;;;;;;5059761;28;20449;-77
2022/10/18 00:44:07;;;;;;;58.53;35.28;;;15.90;99.90;;;;;;5055893;28;20440;-76
2022/10/18 00:46:38;;;;;;;60.55;39.15;;;15.90;99.90;;;;;;5065038;28;20261;-75
2022/10/18 00:49:11;;;;;;;57.20;37.10;;;15.80;99.90;;;;;;5060593;28;20283;-74
2022/10/18 00:51:56;;;;;;;44.73;31.77;;;15.90;99.90;;;;;;5061774;28;20237;-76
2022/10/18 00:54:24;;;;;;;73.38;41.88;;;15.90;99.90;;;;;;5067167;28;20503;-77
2022/10/18 00:56:51;;;;;;;61.43;37.63;;;15.90;99.90;;;;;;5061484;28;20226;-76
2022/10/18 00:59:19;;;;;;;52.10;34.83;;;15.80;99.90;;;;;;5062304;28;21019;-76
2022/10/18 01:01:48;;;;;;;70.70;43.17;;;15.70;99.90;;;;;;5060909;28;20310;-75
2022/10/18 01:04:17;;;;;;;57.27;35.33;;;15.70;99.90;;;;;;5052958;28;20447;-76
2022/10/18 01:06:54;;;;;;;51.80;34.50;;;15.70;99.90;;;;;;5055868;28;20452;-75
2022/10/18 01:09:30;;;;;;;64.45;37.63;;;15.70;99.90;;;;;;5054105;28;20554;-76
2022/10/18 01:12:13;;;;;;;69.40;37.92;;;15.70;99.90;;;;;;5055579;28;20309;-77
2022/10/18 01:14:49;;;;;;;65.13;38.35;;;15.60;99.90;;;;;;5055590;28;20342;-77
2022/10/18 01:17:21;;;;;;;54.50;33.03;;;15.60;99.90;;;;;;5069169;28;20273;-75
2022/10/18 01:20:07;;;;;;;54.83;34.30;;;15.50;99.90;;;;;;5068380;28;20357;-76
2022/10/18 01:22:39;;;;;;;56.35;35.97;;;15.50;99.90;;;;;;5074984;28;20455;-76
2022/10/18 01:25:17;;;;;;;81.57;40.97;;;15.50;99.90;;;;;;5057527;28;20295;-76
2022/10/18 01:27:50;;;;;;;76.32;41.40;;;15.50;99.90;;;;;;5057426;28;20300;-77
2022/10/18 01:30:35;;;;;;;61.38;39.20;;;15.40;99.90;;;;;;5058665;28;20215;-76
2022/10/18 01:33:10;;;;;;;99.32;44.63;;;15.40;99.90;;;;;;5051328;28;20222;-76
2022/10/18 01:35:42;;;;;;;62.85;37.00;;;15.40;99.90;;;;;;5055827;28;20296;-76
2022/10/18 01:38:15;;;;;;;71.55;40.65;;;15.40;99.90;;;;;;5055259;28;20253;-76
2022/10/18 01:40:45;;;;;;;47.13;34.60;;;15.40;99.90;;;;;;5055100;28;20225;-76
2022/10/18 01:43:14;;;;;;;58.22;36.47;;;15.40;99.90;;;;;;5060924;28;20447;-77
2022/10/18 01:45:43;;;;;;;104.00;46.08;;;15.40;99.90;;;;;;5075737;28;20236;-76
2022/10/18 01:48:18;;;;;;;110.30;49.40;;;15.40;99.90;;;;;;5058109;28;20230;-76
2022/10/18 01:50:45;;;;;;;84.30;41.30;;;15.40;99.90;;;;;;5065236;28;20193;-77
2022/10/18 01:53:25;;;;;;;82.10;43.47;;;15.40;99.90;;;;;;5065428;28;20222;-77
2022/10/18 01:56:11;;;;;;;86.68;42.60;;;15.30;99.90;;;;;;5051916;28;20194;-76
2022/10/18 01:58:45;;;;;;;78.57;42.03;;;15.30;99.90;;;;;;5061969;28;20278;-78
2022/10/18 02:01:21;;;;;;;78.35;39.95;;;15.30;99.90;;;;;;5052022;28;20266;-75
2022/10/18 02:03:50;;;;;;;100.30;45.57;;;15.30;99.90;;;;;;5054462;28;20235;-76
2022/10/18 02:06:23;;;;;;;79.72;42.45;;;15.30;99.90;;;;;;5054019;28;20444;-75
2022/10/18 02:08:55;;;;;;;125.90;49.42;;;15.30;99.90;;;;;;5054836;28;20266;-76
2022/10/18 02:11:22;;;;;;;121.70;48.65;;;15.30;99.90;;;;;;5053797;28;20552;-75
2022/10/18 02:13:54;;;;;;;103.38;47.60;;;15.20;99.90;;;;;;5054201;28;20294;-76
2022/10/18 02:16:28;;;;;;;111.00;47.72;;;15.10;99.90;;;;;;5053928;28;20202;-75
2022/10/18 02:18:58;;;;;;;99.78;47.10;;;15.10;99.90;;;;;;5046881;28;20308;-76
2022/10/18 02:21:27;;;;;;;140.35;53.50;;;15.10;99.90;;;;;;5049766;28;20206;-76
2022/10/18 02:23:55;;;;;;;113.15;48.53;;;15.00;99.90;;;;;;5054819;28;20271;-76
2022/10/18 02:26:23;;;;;;;124.75;49.67;;;15.00;99.90;;;;;;5054112;28;20230;-77
2022/10/18 02:28:50;;;;;;;71.25;41.45;;;15.00;99.90;;;;;;5054642;28;20254;-77
2022/10/18 02:31:21;;;;;;;85.30;44.57;;;15.00;99.90;;;;;;5053895;28;20217;-77
2022/10/18 02:33:55;;;;;;;68.95;40.40;;;15.10;99.90;;;;;;5054078;28;20488;-77
2022/10/18 02:36:27;;;;;;;94.10;45.80;;;15.10;99.90;;;;;;5058564;28;20648;-76
2022/10/18 02:38:58;;;;;;;100.50;46.95;;;15.10;99.90;;;;;;5060264;28;20276;-74
2022/10/18 02:41:27;;;;;;;97.32;45.25;;;15.00;99.90;;;;;;5053573;28;20208;-75
2022/10/18 02:43:54;;;;;;;106.85;46.65;;;15.00;99.90;;;;;;5062169;28;20191;-75
2022/10/18 02:46:21;;;;;;;66.32;38.22;;;15.00;99.90;;;;;;5057575;28;20291;-75
2022/10/18 02:48:51;;;;;;;55.97;36.20;;;15.00;99.90;;;;;;5052798;28;20287;-75
2022/10/18 02:51:17;;;;;;;117.85;48.55;;;15.00;99.90;;;;;;5054272;28;20275;-75
2022/10/18 02:53:44;;;;;;;105.70;48.50;;;15.00;99.90;;;;;;5060485;28;20212;-77
2022/10/18 02:56:11;;;;;;;115.05;50.42;;;15.00;99.90;;;;;;5058410;28;20299;-75
2022/10/18 02:58:38;;;;;;;110.20;48.17;;;15.00;99.90;;;;;;5055721;28;20225;-76
2022/10/18 03:01:06;;;;;;;151.27;53.63;;;15.00;99.90;;;;;;5055089;28;20207;-75
2022/10/18 03:03:32;;;;;;;67.18;39.28;;;15.00;99.90;;;;;;5060875;28;20200;-75
2022/10/18 03:06:02;;;;;;;141.00;50.17;;;15.00;99.90;;;;;;5065659;28;20209;-76
2022/10/18 03:08:29;;;;;;;167.90;58.22;;;14.90;99.90;;;;;;5064314;28;20260;-75
2022/10/18 03:10:56;;;;;;;188.55;58.50;;;14.90;99.90;;;;;;5057153;28;20671;-75
2022/10/18 03:13:23;;;;;;;165.07;55.95;;;14.90;99.90;;;;;;5061575;28;20346;-75
2022/10/18 03:15:51;;;;;;;167.80;55.35;;;14.90;99.90;;;;;;5054512;28;20287;-75
2022/10/18 03:18:18;;;;;;;149.35;55.28;;;15.00;99.90;;;;;;5055939;28;20231;-75
2022/10/18 03:20:46;;;;;;;237.93;65.32;;;14.90;99.90;;;;;;5055673;28;20192;-75
2022/10/18 03:23:14;;;;;;;238.77;63.22;;;14.90;99.90;;;;;;5067220;28;20205;-76
2022/10/18 03:25:41;;;;;;;212.32;62.80;;;14.90;99.90;;;;;;5056610;28;20287;-75
2022/10/18 03:28:08;;;;;;;217.07;63.25;;;14.90;99.90;;;;;;5053004;28;20229;-75
2022/10/18 03:30:37;;;;;;;269.15;68.13;;;14.90;99.90;;;;;;5060988;28;20290;-75
2022/10/18 03:33:05;;;;;;;369.48;78.93;;;14.90;99.90;;;;;;5053736;28;20715;-75
2022/10/18 03:35:32;;;;;;;466.40;86.95;;;14.80;99.90;;;;;;5057291;28;20295;-76
2022/10/18 03:37:59;;;;;;;338.63;75.82;;;14.80;99.90;;;;;;5048599;28;20257;-76
2022/10/18 03:40:29;;;;;;;263.50;68.97;;;14.80;99.90;;;;;;5071220;28;20204;-76
2022/10/18 03:42:56;;;;;;;355.95;72.28;;;14.90;99.90;;;;;;5062070;28;20240;-75
2022/10/18 03:45:30;;;;;;;377.05;78.45;;;14.90;99.90;;;;;;5040215;28;20237;-75
2022/10/18 03:47:56;;;;;;;608.03;95.18;;;14.90;99.90;;;;;;5052965;28;20217;-75
2022/10/18 03:50:23;;;;;;;395.55;74.78;;;14.80;99.90;;;;;;5052298;28;20289;-76
2022/10/18 03:52:50;;;;;;;422.10;75.60;;;14.80;99.90;;;;;;5053528;28;20204;-76
2022/10/18 03:55:18;;;;;;;396.90;76.72;;;14.70;99.90;;;;;;5056567;28;20556;-76
2022/10/18 03:57:46;;;;;;;584.65;96.18;;;14.70;99.90;;;;;;5058103;28;20612;-76
2022/10/18 04:00:14;;;;;;;608.53;94.97;;;14.60;99.90;;;;;;5053419;28;20280;-76
2022/10/18 04:02:40;;;;;;;405.73;81.78;;;14.60;99.90;;;;;;5058080;28;20255;-75
2022/10/18 04:05:08;;;;;;;259.05;65.72;;;14.60;99.90;;;;;;5056420;28;20193;-75
2022/10/18 04:07:35;;;;;;;424.08;81.05;;;14.60;99.90;;;;;;5052142;28;20223;-75
2022/10/18 04:10:02;;;;;;;603.65;98.18;;;14.60;99.90;;;;;;5048038;28;20202;-75
2022/10/18 04:12:29;;;;;;;705.72;108.22;;;14.60;99.90;;;;;;5062317;28;20229;-76
2022/10/18 04:14:57;;;;;;;750.17;108.45;;;14.60;99.90;;;;;;5061424;28;20245;-76
2022/10/18 04:17:24;;;;;;;244.52;62.40;;;14.60;99.90;;;;;;5052120;28;20263;-77
2022/10/18 04:19:51;;;;;;;576.72;99.32;;;14.60;99.90;;;;;;5056307;28;20249;-76
2022/10/18 04:22:18;;;;;;;318.30;73.05;;;14.70;99.90;;;;;;5060820;28;20214;-76
2022/10/18 04:24:45;;;;;;;454.85;82.28;;;14.70;99.90;;;;;;5052365;28;20278;-76
2022/10/18 04:27:12;;;;;;;227.93;61.67;;;14.70;99.90;;;;;;5059283;28;20240;-76
2022/10/18 04:29:39;;;;;;;348.85;74.97;;;14.80;99.90;;;;;;5051913;28;20258;-76
2022/10/18 04:32:07;;;;;;;546.92;91.68;;;14.80;99.90;;;;;;5053057;28;20289;-76
2022/10/18 04:34:34;;;;;;;223.48;57.63;;;14.80;99.90;;;;;;5045903;28;20228;-77
2022/10/18 04:37:01;;;;;;;653.80;101.20;;;14.80;99.90;;;;;;5056071;28;20284;-76
2022/10/18 04:39:29;;;;;;;522.88;91.10;;;14.80;99.90;;;;;;5054531;28;20235;-77
2022/10/18 04:41:56;;;;;;;351.90;76.80;;;14.80;99.90;;;;;;5053570;28;20264;-75
2022/10/18 04:44:23;;;;;;;365.33;91.63;;;14.80;99.90;;;;;;5073012;28;20205;-75
2022/10/18 04:46:50;;;;;;;203.50;59.65;;;14.80;99.90;;;;;;5061522;28;20206;-76
2022/10/18 04:49:18;;;;;;;456.50;87.53;;;14.90;99.90;;;;;;5059910;28;20224;-74
2022/10/18 04:51:45;;;;;;;230.85;59.58;;;14.80;99.90;;;;;;5065121;28;20278;-75
2022/10/18 04:54:13;;;;;;;271.88;69.20;;;14.90;99.90;;;;;;5060891;28;20221;-75
2022/10/18 04:56:40;;;;;;;144.55;49.72;;;14.80;99.90;;;;;;5043820;28;20190;-76
2022/10/18 04:59:07;;;;;;;309.05;70.05;;;14.80;99.90;;;;;;5035394;28;20298;-77
2022/10/18 05:01:34;;;;;;;118.13;48.13;;;14.70;99.90;;;;;;5060517;28;20209;-75
2022/10/18 05:04:01;;;;;;;148.77;51.95;;;14.90;99.90;;;;;;5056666;28;20227;-75
2022/10/18 05:06:30;;;;;;;263.48;63.03;;;14.90;99.90;;;;;;5053457;28;20234;-75
2022/10/18 05:08:56;;;;;;;163.32;53.20;;;15.00;99.90;;;;;;5056464;28;20320;-76
2022/10/18 05:11:23;;;;;;;209.80;59.10;;;14.90;99.90;;;;;;5061025;28;20205;-76
2022/10/18 05:13:51;;;;;;;264.42;61.67;;;15.00;99.90;;;;;;5061804;28;20202;-76
2022/10/18 05:16:19;;;;;;;180.65;52.22;;;15.00;99.90;;;;;;5061843;28;20224;-77
2022/10/18 05:18:46;;;;;;;205.90;57.08;;;14.90;99.90;;;;;;5055475;28;20225;-75
2022/10/18 05:21:13;;;;;;;158.70;52.30;;;14.90;99.90;;;;;;5057667;28;20232;-76
2022/10/18 05:23:41;;;;;;;141.75;50.80;;;14.90;99.90;;;;;;5049828;28;20283;-76
2022/10/18 05:26:09;;;;;;;203.95;57.30;;;15.00;99.90;;;;;;5061617;28;20231;-75
2022/10/18 05:28:36;;;;;;;207.98;55.03;;;14.90;99.90;;;;;;5067508;28;20233;-76
2022/10/18 05:31:07;;;;;;;196.35;55.13;;;14.80;99.90;;;;;;5062107;28;20201;-77
2022/10/18 05:33:34;;;;;;;193.52;52.70;;;14.80;99.90;;;;;;5055828;28;20239;-77
2022/10/18 05:36:02;;;;;;;131.52;46.95;;;14.80;99.90;;;;;;5066853;28;20216;-77
2022/10/18 05:38:30;;;;;;;89.07;39.83;;;14.90;99.90;;;;;;5053543;28;20334;-77
2022/10/18 05:40:58;;;;;;;174.68;54.72;;;14.90;99.90;;;;;;5051669;28;20250;-76
2022/10/18 05:43:28;;;;;;;180.25;52.03;;;14.90;99.90;;;;;;5064131;28;20210;-76
2022/10/18 05:45:56;;;;;;;220.57;51.00;;;14.90;99.90;;;;;;5061401;28;20195;-75
2022/10/18 05:48:23;;;;;;;129.80;45.17;;;14.90;99.90;;;;;;5066627;28;20649;-77
2022/10/18 05:50:50;;;;;;;112.57;41.13;;;14.90;99.90;;;;;;5057055;28;20212;-74
2022/10/18 05:53:17;;;;;;;114.07;42.33;;;15.00;99.90;;;;;;5055652;28;20608;-75
2022/10/18 05:55:44;;;;;;;80.20;33.67;;;15.00;99.90;;;;;;5054810;28;20248;-77
2022/10/18 05:58:13;;;;;;;122.90;41.15;;;14.90;99.90;;;;;;5050775;28;20232;-78
2022/10/18 06:00:42;;;;;;;81.82;35.53;;;14.90;99.90;;;;;;5055501;28;20258;-78
2022/10/18 06:03:10;;;;;;;92.30;37.83;;;14.90;99.90;;;;;;5055389;28;20201;-75
2022/10/18 06:05:37;;;;;;;89.57;36.45;;;14.90;99.90;;;;;;5049821;28;20233;-76
2022/10/18 06:08:11;;;;;;;79.97;36.00;;;14.90;99.90;;;;;;5057058;28;20217;-76
2022/10/18 06:10:39;;;;;;;107.30;42.78;;;15.00;99.90;;;;;;5066591;28;20695;-75
2022/10/18 06:13:15;;;;;;;103.65;38.40;;;15.00;99.90;;;;;;5055790;28;20201;-76
2022/10/18 06:15:42;;;;;;;138.63;42.13;;;15.00;99.90;;;;;;5059160;28;20209;-77
2022/10/18 06:18:15;;;;;;;121.85;39.75;;;14.90;99.90;;;;;;5061033;28;20234;-78
2022/10/18 06:20:42;;;;;;;54.45;30.00;;;14.90;99.90;;;;;;5055265;28;20192;-78
2022/10/18 06:23:09;;;;;;;121.07;41.30;;;14.90;99.90;;;;;;5054977;28;20650;-73
2022/10/18 06:25:36;;;;;;;92.25;40.88;;;15.00;99.90;;;;;;5066655;28;20614;-74
2022/10/18 06:28:04;;;;;;;103.70;38.90;;;14.90;99.90;;;;;;5050173;28;20223;-74
2022/10/18 06:30:33;;;;;;;119.13;41.30;;;15.00;99.90;;;;;;5060035;28;20292;-73
2022/10/18 06:33:00;;;;;;;90.75;36.92;;;15.00;99.90;;;;;;5062847;28;20214;-73
2022/10/18 06:35:27;;;;;;;108.95;37.70;;;15.00;99.90;;;;;;5062226;28;20213;-73
2022/10/18 06:37:54;;;;;;;105.82;37.05;;;15.00;99.90;;;;;;5056725;28;20249;-74
2022/10/18 06:40:21;;;;;;;147.40;42.58;;;15.00;99.90;;;;;;5055884;28;20236;-73
2022/10/18 06:42:48;;;;;;;80.32;34.08;;;15.00;99.90;;;;;;5049029;28;20236;-72
2022/10/18 06:45:17;;;;;;;60.00;31.17;;;15.10;99.90;;;;;;5056151;28;20599;-73
2022/10/18 06:47:45;;;;;;;134.52;40.53;;;15.10;99.90;;;;;;5053928;28;20295;-74
2022/10/18 06:50:12;;;;;;;82.47;33.58;;;15.10;99.90;;;;;;5054187;28;20203;-74
2022/10/18 06:52:40;;;;;;;72.97;32.17;;;15.10;99.90;;;;;;5053537;28;20243;-73
2022/10/18 06:55:09;;;;;;;52.83;28.42;;;15.10;99.90;;;;;;5054847;28;20581;-76
2022/10/18 06:57:36;;;;;;;85.20;32.75;;;15.10;99.90;;;;;;5060486;28;20224;-74
2022/10/18 07:00:04;;;;;;;92.45;33.75;;;15.10;99.90;;;;;;5053304;28;20290;-74
2022/10/18 07:02:31;;;;;;;64.68;29.13;;;15.10;99.90;;;;;;5051111;28;20211;-74
2022/10/18 07:04:59;;;;;;;76.00;30.83;;;15.10;99.90;;;;;;5052013;28;20243;-74
2022/10/18 07:07:26;;;;;;;87.05;31.80;;;15.10;99.90;;;;;;5047090;28;20216;-73
2022/10/18 07:09:53;;;;;;;72.07;28.95;;;15.10;99.90;;;;;;5052637;28;20575;-76
2022/10/18 07:12:20;;;;;;;86.85;30.90;;;15.00;99.90;;;;;;5050438;28;20303;-73
2022/10/18 07:14:47;;;;;;;54.28;28.25;;;15.00;99.90;;;;;;5059208;28;20314;-72
2022/10/18 07:17:13;;;;;;;80.15;29.63;;;15.10;99.90;;;;;;5058928;28;20288;-70
2022/10/18 07:19:40;;;;;;;45.58;26.27;;;15.00;99.90;;;;;;5066722;28;20284;-72
2022/10/18 07:22:09;;;;;;;46.33;26.27;;;15.00;99.90;;;;;;5055277;28;20208;-73
2022/10/18 07:24:35;;;;;;;65.47;29.05;;;15.10;99.90;;;;;;5052307;28;20291;-73
2022/10/18 07:27:02;;;;;;;57.33;30.35;;;15.10;99.90;;;;;;5060776;28;20197;-73
2022/10/18 07:29:29;;;;;;;49.65;27.50;;;15.20;99.90;;;;;;5050914;28;20213;-72
2022/10/18 07:31:56;;;;;;;41.90;24.95;;;15.20;99.90;;;;;;5053212;28;20694;-72
2022/10/18 07:34:23;;;;;;;42.75;24.02;;;15.20;99.90;;;;;;5052549;28;20646;-71
2022/10/18 07:36:50;;;;;;;44.33;23.77;;;15.20;99.90;;;;;;5051704;28;20216;-73
2022/10/18 07:39:18;;;;;;;36.53;22.98;;;15.20;99.90;;;;;;5052684;28;20256;-74
2022/10/18 07:41:45;;;;;;;43.67;24.65;;;15.20;99.90;;;;;;5051795;28;20283;-73
2022/10/18 07:44:15;;;;;;;36.10;22.15;;;15.20;99.90;;;;;;5051913;28;20224;-70
2022/10/18 07:46:42;;;;;;;49.63;23.75;;;15.10;99.90;;;;;;5049606;28;20642;-73
2022/10/18 07:49:09;;;;;;;40.13;23.48;;;15.10;99.90;;;;;;5051767;28;20228;-77
2022/10/18 07:51:36;;;;;;;45.92;25.27;;;15.10;99.90;;;;;;5053509;28;20284;-75
2022/10/18 07:54:04;;;;;;;46.92;25.27;;;15.10;99.90;;;;;;5049965;28;20242;-77
2022/10/18 07:56:32;;;;;;;44.05;22.25;;;15.10;99.90;;;;;;5053301;28;20306;-80
2022/10/18 07:58:59;;;;;;;39.40;22.55;;;15.20;99.90;;;;;;5055644;28;20230;-75
2022/10/18 08:01:26;;;;;;;38.08;23.92;;;15.20;99.90;;;;;;5054431;28;20251;-77
2022/10/18 08:03:53;;;;;;;34.47;21.30;;;15.20;99.90;;;;;;5062854;28;20220;-78
2022/10/18 08:06:22;;;;;;;46.80;20.67;;;15.20;99.90;;;;;;5062536;28;20229;-78
2022/10/18 08:08:49;;;;;;;32.50;18.35;;;15.10;99.90;;;;;;5054415;28;20231;-76
2022/10/18 08:11:20;;;;;;;39.15;18.27;;;15.10;99.90;;;;;;5063614;28;20572;-75
2022/10/18 08:13:48;;;;;;;51.25;23.60;;;15.10;99.90;;;;;;5064561;28;20265;-77
2022/10/18 08:16:18;;;;;;;34.00;22.05;;;15.10;99.90;;;;;;5066604;28;20217;-75
2022/10/18 08:18:45;;;;;;;38.60;21.77;;;15.10;99.90;;;;;;5053573;28;20613;-78
2022/10/18 08:21:13;;;;;;;41.08;21.23;;;15.10;99.90;;;;;;5058989;28;20215;-77
2022/10/18 08:23:40;;;;;;;43.13;22.55;;;15.10;99.90;;;;;;5057165;28;20621;-77
2022/10/18 08:26:09;;;;;;;36.00;20.10;;;15.10;99.90;;;;;;5073018;28;20216;-76
2022/10/18 08:28:36;;;;;;;23.70;16.98;;;15.30;99.90;;;;;;5063695;28;20258;-73
2022/10/18 08:31:07;;;;;;;34.65;19.52;;;15.90;99.90;;;;;;5068888;28;20283;-73
2022/10/18 08:33:35;;;;;;;28.07;16.23;;;16.10;99.90;;;;;;5060111;28;20641;-76
2022/10/18 08:36:04;;;;;;;27.13;13.40;;;16.50;99.90;;;;;;5057181;28;20479;-80
2022/10/18 08:38:32;;;;;;;17.87;12.50;;;17.90;99.90;;;;;;5054453;28;20462;-79
2022/10/18 08:41:00;;;;;;;20.93;13.90;;;18.90;99.90;;;;;;5053623;28;20533;-76
2022/10/18 08:43:35;;;;;;;20.73;14.70;;;18.60;99.90;;;;;;5052424;28;20951;-75
2022/10/18 08:46:02;;;;;;;23.17;14.20;;;18.60;99.90;;;;;;5052804;28;20527;-77
2022/10/18 08:48:35;;;;;;;22.23;13.80;;;18.70;99.90;;;;;;5061714;28;20468;-77
2022/10/18 08:51:04;;;;;;;22.40;14.07;;;18.70;99.90;;;;;;5045440;28;20482;-77
2022/10/18 08:53:40;;;;;;;21.73;13.20;;;18.40;99.90;;;;;;5059265;28;20491;-76
2022/10/18 08:56:14;;;;;;;21.70;13.00;;;18.10;99.90;;;;;;5052276;28;20568;-79
2022/10/18 08:58:43;;;;;;;15.70;11.00;;;18.60;99.90;;;;;;5055746;28;20468;-76
2022/10/18 09:01:22;;;;;;;18.57;11.80;;;20.00;99.90;;;;;;5055637;28;20469;-77
2022/10/18 09:04:19;;;;;;;17.67;11.20;;;20.60;99.90;;;;;;5058500;28;20911;-77
2022/10/18 09:06:54;;;;;;;21.83;11.37;;;21.70;99.90;;;;;;5073082;28;20464;-78
2022/10/18 09:09:34;;;;;;;21.37;12.50;;;22.60;99.90;;;;;;5073458;28;20475;-76
2022/10/18 09:12:18;;;;;;;20.43;14.23;;;23.90;99.90;;;;;;5063674;28;20489;-76
2022/10/18 09:15:09;;;;;;;18.10;13.57;;;23.90;99.90;;;;;;5055673;28;20425;-80
2022/10/18 09:17:44;;;;;;;21.87;13.20;;;22.80;99.90;;;;;;5055176;28;20575;-75
2022/10/18 09:20:23;;;;;;;20.00;11.80;;;22.20;99.90;;;;;;5064363;28;20447;-74
2022/10/18 09:22:55;;;;;;;23.43;12.27;;;22.70;99.90;;;;;;5049875;28;20492;-75
2022/10/18 09:25:25;;;;;;;18.00;13.30;;;22.50;99.90;;;;;;5055011;28;20524;-72
2022/10/18 09:27:57;;;;;;;19.50;14.87;;;22.10;99.90;;;;;;5054511;28;20568;-72
2022/10/18 09:30:41;;;;;;;21.23;12.40;;;21.80;99.90;;;;;;5053883;28;20438;-73
2022/10/18 09:33:19;;;;;;;14.07;11.50;;;21.30;99.90;;;;;;5049791;28;20549;-73
2022/10/18 09:35:54;;;;;;;15.67;11.60;;;21.10;99.90;;;;;;5054284;28;20470;-73
2022/10/18 09:38:24;;;;;;;16.87;11.33;;;21.60;99.90;;;;;;5055070;28;20511;-74
2022/10/18 09:40:55;;;;;;;14.03;10.43;;;21.50;99.90;;;;;;5055488;28;20474;-73
2022/10/18 09:43:25;;;;;;;14.93;10.57;;;22.20;99.90;;;;;;5054940;28;20481;-73
2022/10/18 09:45:54;;;;;;;14.50;9.83;;;22.90;99.90;;;;;;5054810;28;20442;-73
2022/10/18 09:48:27;;;;;;;12.90;9.00;;;23.50;99.90;;;;;;5055129;28;20466;-74
2022/10/18 09:51:00;;;;;;;13.60;8.87;;;23.60;99.90;;;;;;5052313;28;20438;-73
2022/10/18 09:53:36;;;;;;;14.73;9.77;;;23.60;99.90;;;;;;5055081;28;20544;-73
2022/10/18 09:56:06;;;;;;;16.23;10.03;;;23.50;99.90;;;;;;5054332;28;20531;-72
2022/10/18 09:58:42;;;;;;;18.80;10.00;;;23.30;99.90;;;;;;5052655;28;20836;-72
2022/10/18 10:01:13;;;;;;;20.23;9.87;;;23.40;99.90;;;;;;5055526;28;20451;-73
2022/10/18 10:03:41;;;;;;;14.73;9.27;;;23.30;99.90;;;;;;5061904;28;20454;-73
2022/10/18 10:06:25;;;;;;;20.63;8.30;;;23.30;99.90;;;;;;5055665;28;20521;-73
2022/10/18 10:09:00;;;;;;;15.03;8.50;;;23.80;99.90;;;;;;5056491;28;20465;-73
2022/10/18 10:11:36;;;;;;;16.03;7.17;;;23.90;99.50;;;;;;5053036;28;20495;-74
2022/10/18 10:14:21;;;;;;;17.47;6.40;;;24.20;98.30;;;;;;5054055;28;20449;-73
2022/10/18 10:16:51;;;;;;;10.27;5.50;;;24.20;97.00;;;;;;5053514;28;21102;-73
2022/10/18 10:19:22;;;;;;;9.93;5.00;;;23.90;96.70;;;;;;5055445;28;20469;-73
2022/10/18 10:21:53;;;;;;;12.37;5.37;;;23.50;96.80;;;;;;5053249;28;20458;-74
2022/10/18 10:24:28;;;;;;;15.77;5.60;;;23.60;97.20;;;;;;5055455;28;20534;-73
2022/10/18 10:27:01;;;;;;;9.13;4.67;;;23.30;98.70;;;;;;5055629;28;20793;-75
2022/10/18 10:29:52;;;;;;;10.93;5.17;;;22.90;98.40;;;;;;5062625;28;20446;-76
2022/10/18 10:32:21;;;;;;;13.80;4.43;;;22.00;99.30;;;;;;5052321;28;20796;-74
2022/10/18 10:34:48;;;;;;;16.47;6.17;;;22.00;99.90;;;;;;5049375;28;20475;-74
2022/10/18 10:37:38;;;;;;;10.97;5.73;;;22.00;99.90;;;;;;5062345;28;20576;-73
2022/10/18 10:40:15;;;;;;;7.13;5.40;;;22.10;99.90;;;;;;5048530;28;20462;-73
2022/10/18 10:43:04;;;;;;;10.63;5.60;;;21.90;99.90;;;;;;5054216;28;20434;-73
2022/10/18 10:45:35;;;;;;;12.40;7.07;;;22.00;99.90;;;;;;5054440;28;20530;-73
2022/10/18 10:48:06;;;;;;;14.07;7.27;;;22.10;99.90;;;;;;5060668;28;20469;-74
2022/10/18 10:50:50;;;;;;;10.90;8.40;;;22.00;99.90;;;;;;5058523;28;20452;-74
2022/10/18 10:53:30;;;;;;;18.70;10.93;;;21.50;99.90;;;;;;5061037;28;20459;-75
2022/10/18 10:55:58;;;;;;;11.40;9.33;;;20.90;99.90;;;;;;5064143;28;20504;-75
2022/10/18 10:58:27;;;;;;;12.73;9.63;;;20.50;99.90;;;;;;5057496;28;20548;-74
2022/10/18 11:00:57;;;;;;;14.90;9.13;;;20.40;99.90;;;;;;5056656;28;20461;-72
2022/10/18 11:03:24;;;;;;;9.70;8.20;;;20.40;99.90;;;;;;5063838;28;20445;-75
2022/10/18 11:05:54;;;;;;;15.10;9.57;;;20.40;99.90;;;;;;5057191;28;21005;-73
2022/10/18 11:08:25;;;;;;;13.43;9.30;;;20.30;99.90;;;;;;5050868;28;20484;-73
2022/10/18 11:11:06;;;;;;;12.40;8.50;;;20.00;99.90;;;;;;5048460;28;20510;-74
2022/10/18 11:13:47;;;;;;;19.23;8.47;;;19.80;99.90;;;;;;5051458;28;20529;-73
2022/10/18 11:16:21;;;;;;;14.80;6.90;;;19.50;99.90;;;;;;5051063;28;20521;-73
2022/10/18 11:18:51;;;;;;;17.03;8.23;;;19.60;99.90;;;;;;5047716;28;20928;-74
2022/10/18 11:21:22;;;;;;;11.90;8.23;;;19.50;99.90;;;;;;5050226;28;20438;-72
2022/10/18 11:23:49;;;;;;;10.77;7.47;;;19.60;99.90;;;;;;5044330;28;20472;-73
2022/10/18 11:26:35;;;;;;;10.53;6.70;;;19.60;99.90;;;;;;5060500;28;20438;-73
2022/10/18 11:29:19;;;;;;;10.03;5.93;;;19.50;99.90;;;;;;5051991;28;20497;-75
2022/10/18 11:31:56;;;;;;;11.10;6.57;;;19.10;99.90;;;;;;5057321;28;20521;-75
2022/10/18 11:34:39;;;;;;;9.40;5.10;;;18.90;99.90;;;;;;5062784;28;20519;-76
2022/10/18 11:37:22;;;;;;;13.53;5.20;;;18.60;99.90;;;;;;5052049;28;21094;-75
2022/10/18 11:40:01;;;;;;;12.83;4.93;;;18.40;99.90;;;;;;5052246;28;20900;-75
2022/10/18 11:42:34;;;;;;;7.60;4.37;;;18.50;99.90;;;;;;5053582;28;20483;-74
2022/10/18 11:45:13;;;;;;;8.97;5.50;;;18.60;99.90;;;;;;5054543;28;20474;-74
2022/10/18 11:47:50;;;;;;;9.60;4.80;;;18.60;99.90;;;;;;5042235;28;20885;-73
2022/10/18 11:50:28;;;;;;;10.30;5.03;;;18.60;99.90;;;;;;5054228;28;20474;-75
2022/10/18 11:53:07;;;;;;;10.90;5.60;;;18.60;99.90;;;;;;5052353;28;20472;-75
2022/10/18 11:55:51;;;;;;;10.90;5.33;;;18.60;99.90;;;;;;5058150;28;20454;-75
2022/10/18 11:58:38;;;;;;;14.43;5.23;;;18.30;99.90;;;;;;5051748;28;20969;-76
2022/10/18 12:01:12;;;;;;;10.90;5.10;;;18.20;99.90;;;;;;5059580;28;20489;-76
2022/10/18 12:03:53;;;;;;;10.80;5.30;;;18.20;99.90;;;;;;5047821;28;20882;-73
2022/10/18 12:06:22;;;;;;;9.03;4.93;;;18.30;99.90;;;;;;5049493;28;20450;-74
2022/10/18 12:08:53;;;;;;;8.07;4.93;;;18.30;99.90;;;;;;5050095;28;20487;-74
2022/10/18 12:11:24;;;;;;;7.60;5.20;;;18.20;99.90;;;;;;5034277;28;20855;-75
2022/10/18 12:13:58;;;;;;;13.47;5.87;;;18.10;99.90;;;;;;5050987;28;20445;-73
2022/10/18 12:16:29;;;;;;;7.53;4.27;;;18.10;99.90;;;;;;5060172;28;20500;-74
2022/10/18 12:18:59;;;;;;;10.50;4.43;;;18.00;99.90;;;;;;5051981;28;20470;-75
2022/10/18 12:21:29;;;;;;;9.53;3.77;;;18.00;99.90;;;;;;5059932;28;20526;-75
2022/10/18 12:23:59;;;;;;;17.00;4.70;;;18.00;99.90;;;;;;5065806;28;20536;-74
2022/10/18 12:26:28;;;;;;;9.77;4.37;;;17.90;99.90;;;;;;5050668;28;20530;-76
2022/10/18 12:29:22;;;;;;;13.00;4.10;;;17.80;99.90;;;;;;5052806;28;20480;-75
2022/10/18 12:31:52;;;;;;;15.67;3.73;;;17.70;99.90;;;;;;5050633;28;20482;-75
2022/10/18 12:34:41;;;;;;;6.43;4.23;;;17.50;99.90;;;;;;5057531;28;20541;-74
2022/10/18 12:37:49;;;;;;;7.27;3.53;;;17.60;99.90;;;;;;5062467;28;20470;-75
2022/10/18 12:40:29;;;;;;;8.30;3.33;;;17.50;99.90;;;;;;5047228;28;20480;-74
2022/10/18 12:42:56;;;;;;;7.87;2.90;;;17.50;99.90;;;;;;5067959;28;20490;-76
2022/10/18 12:45:50;;;;;;;7.20;3.10;;;17.60;99.90;;;;;;5067642;28;20520;-75